createdAt,value
2022-08-30T00:00:54.152Z,2.85
2022-08-30T00:03:21.875Z,2.70
2022-08-30T00:05:48.919Z,2.80
2022-08-30T00:08:15.436Z,2.47
2022-08-30T00:10:42.890Z,2.60
2022-08-30T00:13:12.197Z,2.50
2022-08-30T00:15:41.036Z,2.75
2022-08-30T00:18:08.358Z,2.50
2022-08-30T00:20:36.247Z,2.88
2022-08-30T00:23:04.043Z,2.60
2022-08-30T00:25:30.554Z,2.87
2022-08-30T00:27:57.178Z,2.78
2022-08-30T00:30:23.521Z,2.47
2022-08-30T00:32:49.961Z,2.73
2022-08-30T00:35:20.523Z,2.80
2022-08-30T00:37:47.595Z,2.60
2022-08-30T00:40:15.889Z,2.63
2022-08-30T00:42:44.241Z,2.57
2022-08-30T00:45:28.947Z,2.30
2022-08-30T00:47:55.715Z,2.60
2022-08-30T00:50:25.722Z,3.13
2022-08-30T00:52:56.024Z,2.30
2022-08-30T00:55:22.824Z,2.37
2022-08-30T00:57:53.641Z,2.00
2022-08-30T01:00:20.364Z,2.40
2022-08-30T01:02:48.776Z,2.40
2022-08-30T01:05:19.141Z,2.77
2022-08-30T01:07:45.689Z,2.70
2022-08-30T01:10:15.084Z,2.33
2022-08-30T01:12:43.474Z,2.57
2022-08-30T01:15:14.360Z,2.53
2022-08-30T01:17:43.623Z,2.30
2022-08-30T01:20:37.894Z,2.30
2022-08-30T01:23:09.954Z,2.50
2022-08-30T01:25:37.819Z,2.67
2022-08-30T01:28:07.968Z,2.53
2022-08-30T01:30:38.780Z,2.53
2022-08-30T01:33:07.484Z,2.60
2022-08-30T01:35:44.152Z,2.67
2022-08-30T01:38:12.672Z,2.40
2022-08-30T01:40:39.175Z,2.60
2022-08-30T01:43:06.914Z,2.40
2022-08-30T01:45:33.556Z,2.43
2022-08-30T01:48:00.049Z,2.50
2022-08-30T01:50:29.309Z,2.50
2022-08-30T01:52:55.860Z,2.40
2022-08-30T01:55:23.133Z,2.73
2022-08-30T01:57:49.909Z,2.50
2022-08-30T02:00:17.794Z,2.67
2022-08-30T02:02:44.889Z,2.77
2022-08-30T02:05:11.602Z,2.53
2022-08-30T02:07:37.990Z,2.63
2022-08-30T02:10:05.017Z,2.43
2022-08-30T02:12:31.535Z,2.20
2022-08-30T02:14:58.167Z,2.43
2022-08-30T02:17:24.735Z,2.30
2022-08-30T02:19:51.139Z,2.30
2022-08-30T02:22:17.699Z,2.80
2022-08-30T02:24:44.339Z,2.50
2022-08-30T02:27:10.886Z,2.30
2022-08-30T02:29:37.379Z,2.50
2022-08-30T02:32:05.144Z,2.93
2022-08-30T02:34:32.002Z,2.33
2022-08-30T02:36:58.635Z,2.53
2022-08-30T02:39:25.162Z,2.63
2022-08-30T02:41:51.641Z,2.63
2022-08-30T02:44:18.048Z,2.90
2022-08-30T02:46:45.441Z,2.33
2022-08-30T02:51:58.791Z,2.57
2022-08-30T02:54:25.571Z,2.27
2022-08-30T02:56:52.314Z,2.47
2022-08-30T02:59:19.119Z,2.33
2022-08-30T03:01:45.774Z,2.53
2022-08-30T03:04:12.298Z,2.60
2022-08-30T03:06:38.939Z,2.23
2022-08-30T03:09:05.515Z,2.20
2022-08-30T03:11:31.941Z,2.10
2022-08-30T03:13:59.469Z,2.47
2022-08-30T03:16:25.947Z,2.53
2022-08-30T03:18:52.345Z,2.50
2022-08-30T03:21:18.968Z,2.47
2022-08-30T03:23:45.555Z,2.10
2022-08-30T03:26:14.777Z,2.77
2022-08-30T03:28:44.379Z,2.23
2022-08-30T03:31:12.160Z,2.40
2022-08-30T03:33:40.467Z,2.50
2022-08-30T03:36:08.795Z,2.50
2022-08-30T03:38:35.979Z,2.40
2022-08-30T03:41:02.667Z,2.33
2022-08-30T03:43:29.604Z,2.40
2022-08-30T03:45:56.461Z,2.53
2022-08-30T03:48:22.869Z,2.70
2022-08-30T03:50:49.325Z,2.63
2022-08-30T03:53:15.854Z,2.33
2022-08-30T03:55:42.683Z,2.50
2022-08-30T03:58:09.087Z,3.20
2022-08-30T04:00:35.716Z,2.73
2022-08-30T04:03:02.262Z,2.93
2022-08-30T04:05:28.827Z,2.90
2022-08-30T04:07:55.324Z,2.57
2022-08-30T04:10:22.621Z,2.23
2022-08-30T04:12:50.465Z,2.40
2022-08-30T04:15:19.724Z,2.80
2022-08-30T04:17:47.148Z,2.67
2022-08-30T04:20:13.823Z,3.17
2022-08-30T04:22:40.700Z,4.37
2022-08-30T04:25:07.961Z,3.33
2022-08-30T04:27:42.359Z,2.87
2022-08-30T04:30:09.377Z,2.63
2022-08-30T04:32:36.153Z,2.60
2022-08-30T04:35:02.740Z,2.60
2022-08-30T04:37:29.146Z,2.80
2022-08-30T04:39:57.691Z,2.77
2022-08-30T04:42:24.636Z,2.90
2022-08-30T04:44:51.030Z,2.40
2022-08-30T04:47:18.530Z,3.10
2022-08-30T04:49:45.329Z,3.10
2022-08-30T04:52:11.911Z,3.20
2022-08-30T04:54:38.547Z,3.03
2022-08-30T04:57:06.373Z,2.53
2022-08-30T04:59:33.480Z,2.83
2022-08-30T05:02:00.389Z,2.83
2022-08-30T05:04:26.904Z,2.90
2022-08-30T05:06:53.818Z,3.07
2022-08-30T05:09:21.651Z,3.10
2022-08-30T05:11:48.954Z,2.90
2022-08-30T05:14:15.351Z,3.07
2022-08-30T05:16:42.525Z,2.90
2022-08-30T05:19:09.483Z,3.07
2022-08-30T05:21:36.107Z,3.10
2022-08-30T05:24:02.841Z,2.70
2022-08-30T05:26:32.826Z,2.77
2022-08-30T05:29:00.314Z,3.43
2022-08-30T05:31:29.852Z,6.27
2022-08-30T05:33:57.243Z,7.40
2022-08-30T05:36:27.591Z,9.10
2022-08-30T05:38:55.223Z,7.10
2022-08-30T05:41:23.271Z,6.17
2022-08-30T05:43:57.867Z,4.07
2022-08-30T05:46:25.451Z,5.63
2022-08-30T05:48:52.092Z,4.03
2022-08-30T05:51:23.649Z,4.53
2022-08-30T05:53:52.330Z,4.27
2022-08-30T05:56:26.635Z,4.37
2022-08-30T05:58:54.373Z,4.00
2022-08-30T06:01:27.300Z,3.20
2022-08-30T06:03:57.594Z,3.40
2022-08-30T06:06:25.906Z,3.70
2022-08-30T06:08:52.545Z,3.50
2022-08-30T06:11:21.440Z,3.27
2022-08-30T06:13:49.142Z,3.37
2022-08-30T06:16:19.295Z,3.77
2022-08-30T06:18:46.733Z,3.77
2022-08-30T06:21:22.567Z,3.53
2022-08-30T06:23:49.128Z,3.30
2022-08-30T06:26:16.276Z,4.07
2022-08-30T06:28:42.768Z,3.53
2022-08-30T06:31:12.201Z,4.10
2022-08-30T06:33:39.088Z,3.10
2022-08-30T06:36:07.795Z,3.13
2022-08-30T06:38:34.345Z,3.93
2022-08-30T06:41:04.857Z,3.10
2022-08-30T06:43:31.882Z,2.93
2022-08-30T06:46:03.588Z,3.13
2022-08-30T06:48:30.062Z,3.13
2022-08-30T06:50:56.769Z,3.40
2022-08-30T06:53:23.471Z,3.13
2022-08-30T06:55:57.946Z,2.87
2022-08-30T06:58:24.472Z,2.67
2022-08-30T07:00:50.878Z,2.90
2022-08-30T07:03:17.460Z,2.70
2022-08-30T07:05:44.115Z,2.77
2022-08-30T07:08:10.627Z,2.90
2022-08-30T07:10:41.216Z,2.97
2022-08-30T07:13:09.465Z,2.87
2022-08-30T07:15:38.462Z,2.73
2022-08-30T07:18:23.782Z,2.90
2022-08-30T07:20:56.739Z,2.60
2022-08-30T07:23:23.971Z,2.87
2022-08-30T07:25:50.669Z,2.70
2022-08-30T07:28:17.214Z,2.87
2022-08-30T07:30:43.760Z,2.47
2022-08-30T07:33:10.271Z,2.60
2022-08-30T07:35:37.274Z,2.63
2022-08-30T07:38:03.776Z,2.53
2022-08-30T07:40:30.761Z,2.40
2022-08-30T07:42:57.294Z,2.73
2022-08-30T07:45:23.743Z,2.90
2022-08-30T07:47:50.144Z,2.13
2022-08-30T07:50:16.822Z,2.10
2022-08-30T07:52:43.201Z,2.77
2022-08-30T07:55:10.183Z,2.50
2022-08-30T07:57:36.833Z,2.67
2022-08-30T08:00:05.108Z,2.90
2022-08-30T08:02:31.650Z,2.83
2022-08-30T08:04:58.183Z,2.40
2022-08-30T08:07:24.579Z,2.75
2022-08-30T08:09:51.044Z,2.80
2022-08-30T08:12:17.599Z,2.90
2022-08-30T08:14:44.044Z,2.72
2022-08-30T08:17:10.550Z,2.75
2022-08-30T08:19:36.956Z,3.00
2022-08-30T08:22:20.006Z,2.65
2022-08-30T08:24:47.306Z,2.42
2022-08-30T08:27:13.822Z,2.35
2022-08-30T08:29:40.216Z,2.47
2022-08-30T08:32:06.695Z,2.63
2022-08-30T08:34:33.264Z,2.53
2022-08-30T08:36:59.683Z,2.53
2022-08-30T08:39:26.171Z,2.28
2022-08-30T08:41:58.406Z,2.50
2022-08-30T08:44:55.268Z,2.80
2022-08-30T08:47:44.329Z,2.72
2022-08-30T08:50:18.711Z,2.85
2022-08-30T08:53:45.260Z,2.50
2022-08-30T08:56:16.351Z,2.80
2022-08-30T08:58:53.124Z,2.30
2022-08-30T09:01:23.422Z,2.38
2022-08-30T09:03:51.166Z,2.60
2022-08-30T09:06:39.046Z,2.30
2022-08-30T09:09:12.307Z,2.90
2022-08-30T09:11:41.715Z,2.45
2022-08-30T09:14:17.483Z,2.80
2022-08-30T09:16:54.073Z,2.80
2022-08-30T09:19:35.499Z,2.97
2022-08-30T09:22:33.579Z,3.13
2022-08-30T09:25:19.010Z,2.47
2022-08-30T09:27:47.900Z,2.97
2022-08-30T09:30:18.977Z,2.80
2022-08-30T09:33:07.587Z,2.40
2022-08-30T09:35:39.239Z,2.50
2022-08-30T09:38:18.746Z,2.50
2022-08-30T09:40:48.370Z,3.00
2022-08-30T09:43:17.764Z,2.63
2022-08-30T09:45:47.827Z,3.20
2022-08-30T09:48:30.968Z,2.90
2022-08-30T09:51:13.295Z,2.92
2022-08-30T09:54:17.828Z,2.85
2022-08-30T09:57:15.847Z,2.60
2022-08-30T09:59:57.500Z,2.42
2022-08-30T10:02:30.176Z,2.67
2022-08-30T10:05:07.632Z,2.55
2022-08-30T10:07:41.156Z,2.70
2022-08-30T10:10:30.338Z,2.22
2022-08-30T10:13:21.326Z,2.60
2022-08-30T10:15:57.951Z,2.50
2022-08-30T10:18:35.915Z,2.65
2022-08-30T10:21:20.812Z,2.83
2022-08-30T10:23:54.762Z,2.35
2022-08-30T10:26:42.695Z,2.40
2022-08-30T10:29:16.109Z,2.20
2022-08-30T10:31:55.306Z,2.30
2022-08-30T10:34:44.604Z,2.60
2022-08-30T10:37:16.947Z,2.20
2022-08-30T10:39:49.436Z,2.63
2022-08-30T10:42:22.902Z,2.40
2022-08-30T10:44:55.371Z,2.95
2022-08-30T10:47:37.626Z,2.53
2022-08-30T10:50:20.313Z,2.20
2022-08-30T10:53:01.736Z,2.70
2022-08-30T10:55:33.540Z,2.53
2022-08-30T10:58:06.359Z,2.42
2022-08-30T11:00:49.932Z,2.80
2022-08-30T11:03:42.401Z,2.83
2022-08-30T11:06:36.937Z,2.70
2022-08-30T11:09:39.961Z,2.50
2022-08-30T11:12:53.489Z,2.70
2022-08-30T11:15:26.723Z,2.70
2022-08-30T11:18:09.512Z,2.75
2022-08-30T11:20:39.747Z,2.58
2022-08-30T11:23:26.542Z,2.75
2022-08-30T11:25:57.910Z,2.83
2022-08-30T11:28:37.023Z,2.80
2022-08-30T11:31:10.606Z,2.75
2022-08-30T11:33:55.610Z,2.75
2022-08-30T11:36:37.612Z,2.70
2022-08-30T11:39:32.219Z,2.83
2022-08-30T11:42:30.431Z,3.05
2022-08-30T11:45:26.784Z,2.75
2022-08-30T11:48:00.047Z,2.60
2022-08-30T11:50:26.598Z,2.63
2022-08-30T11:53:05.466Z,2.60
2022-08-30T11:55:42.582Z,2.40
2022-08-30T11:58:25.984Z,3.08
2022-08-30T12:01:49.742Z,2.42
2022-08-30T12:04:19.537Z,3.00
2022-08-30T12:06:52.163Z,2.20
2022-08-30T12:09:24.747Z,2.75
2022-08-30T12:11:56.043Z,3.10
2022-08-30T12:14:47.474Z,2.35
2022-08-30T12:17:52.161Z,2.08
2022-08-30T12:20:28.458Z,2.92
2022-08-30T12:22:56.337Z,2.88
2022-08-30T12:25:33.991Z,3.00
2022-08-30T12:28:24.004Z,2.63
2022-08-30T12:30:52.290Z,2.50
2022-08-30T12:33:36.645Z,2.80
2022-08-30T12:36:07.038Z,2.78
2022-08-30T12:38:33.575Z,2.70
2022-08-30T12:41:02.669Z,2.90
2022-08-30T12:43:41.352Z,2.60
2022-08-30T12:46:12.927Z,2.60
2022-08-30T12:48:43.139Z,2.42
2022-08-30T12:51:27.384Z,2.70
2022-08-30T12:54:02.147Z,2.88
2022-08-30T12:56:48.073Z,2.60
2022-08-30T12:59:54.161Z,2.60
2022-08-30T13:02:25.969Z,2.50
2022-08-30T13:04:54.300Z,2.47
2022-08-30T13:07:32.583Z,2.90
2022-08-30T13:10:01.784Z,2.50
2022-08-30T13:12:31.141Z,3.13
2022-08-30T13:15:11.986Z,2.65
2022-08-30T13:17:38.513Z,2.47
2022-08-30T13:20:16.968Z,2.67
2022-08-30T13:23:08.776Z,2.83
2022-08-30T13:25:38.263Z,2.97
2022-08-30T13:28:07.083Z,2.90
2022-08-30T13:30:34.234Z,2.88
2022-08-30T13:33:02.305Z,2.42
2022-08-30T13:35:31.202Z,2.70
2022-08-30T13:38:00.388Z,2.88
2022-08-30T13:40:26.967Z,2.65
2022-08-30T13:42:53.830Z,2.95
2022-08-30T13:48:07.576Z,2.78
2022-08-30T13:50:34.213Z,3.05
2022-08-30T13:53:01.105Z,2.58
2022-08-30T13:55:27.991Z,3.00
2022-08-30T13:57:55.954Z,3.47
2022-08-30T14:00:25.021Z,2.90
2022-08-30T14:02:56.044Z,2.85
2022-08-30T14:11:02.055Z,2.67
2022-08-30T14:13:29.709Z,2.92
2022-08-30T14:18:46.162Z,3.10
2022-08-30T14:21:12.568Z,3.05
2022-08-30T14:23:39.005Z,2.95
2022-08-30T14:26:11.956Z,3.13
2022-08-30T14:28:38.582Z,3.10
2022-08-30T14:31:05.219Z,3.00
2022-08-30T14:33:33.255Z,3.00
2022-08-30T14:35:59.891Z,2.97
2022-08-30T14:38:26.426Z,3.10
2022-08-30T14:40:52.804Z,2.70
2022-08-30T14:43:19.192Z,2.85
2022-08-30T14:45:46.222Z,3.10
2022-08-30T14:48:12.900Z,2.72
2022-08-30T14:50:41.596Z,2.83
2022-08-30T14:53:08.105Z,3.00
2022-08-30T14:55:35.902Z,2.92
2022-08-30T14:58:02.543Z,3.10
2022-08-30T15:00:30.673Z,2.95
2022-08-30T15:02:57.312Z,2.95
2022-08-30T15:05:23.728Z,2.80
2022-08-30T15:07:50.936Z,2.50
2022-08-30T15:10:19.952Z,3.00
2022-08-30T15:12:48.414Z,2.95
2022-08-30T15:15:19.605Z,3.20
2022-08-30T15:17:47.901Z,3.10
2022-08-30T15:20:18.772Z,2.80
2022-08-30T15:22:46.142Z,3.13
2022-08-30T15:25:13.536Z,2.75
2022-08-30T15:27:40.039Z,2.80
2022-08-30T15:30:07.360Z,2.97
2022-08-30T15:32:33.775Z,2.85
2022-08-30T15:35:00.318Z,2.80
2022-08-30T15:37:27.209Z,2.80
2022-08-30T15:39:53.812Z,3.15
2022-08-30T15:42:20.568Z,2.63
2022-08-30T15:44:55.184Z,2.60
2022-08-30T15:47:22.995Z,2.80
2022-08-30T15:50:02.020Z,2.88
2022-08-30T15:52:30.494Z,2.60
2022-08-30T15:54:56.972Z,2.40
2022-08-30T15:57:23.482Z,3.00
2022-08-30T15:59:50.596Z,2.53
2022-08-30T16:02:17.499Z,2.70
2022-08-30T16:04:44.687Z,2.88
2022-08-30T16:07:13.692Z,2.90
2022-08-30T16:09:40.751Z,2.28
2022-08-30T16:12:09.922Z,2.83
2022-08-30T16:14:36.758Z,2.70
2022-08-30T16:17:04.773Z,3.15
2022-08-30T16:19:31.740Z,2.92
2022-08-30T16:21:58.290Z,2.85
2022-08-30T16:24:25.832Z,2.60
2022-08-30T16:26:52.333Z,3.17
2022-08-30T16:29:19.269Z,3.05
2022-08-30T16:31:47.347Z,2.58
2022-08-30T16:34:17.008Z,2.60
2022-08-30T16:36:43.703Z,2.60
2022-08-30T16:39:13.351Z,2.50
2022-08-30T16:41:41.249Z,2.90
2022-08-30T16:44:08.391Z,2.88
2022-08-30T16:46:36.020Z,2.63
2022-08-30T16:49:02.948Z,2.92
2022-08-30T16:51:31.966Z,2.53
2022-08-30T16:54:01.628Z,2.50
2022-08-30T16:56:31.562Z,2.40
2022-08-30T16:59:02.144Z,2.65
2022-08-30T17:01:35.078Z,2.33
2022-08-30T17:04:02.301Z,2.25
2022-08-30T17:06:28.749Z,2.97
2022-08-30T17:08:56.099Z,2.50
2022-08-30T17:11:23.805Z,2.47
2022-08-30T17:13:50.919Z,2.53
2022-08-30T17:16:27.360Z,2.63
2022-08-30T17:18:55.209Z,2.30
2022-08-30T17:21:21.915Z,2.85
2022-08-30T17:23:50.065Z,2.80
2022-08-30T17:26:18.757Z,2.28
2022-08-30T17:28:45.863Z,2.40
2022-08-30T17:31:14.733Z,2.45
2022-08-30T17:33:43.115Z,2.78
2022-08-30T17:36:12.587Z,2.58
2022-08-30T17:38:40.057Z,2.47
2022-08-30T17:41:11.971Z,2.47
2022-08-30T17:43:38.935Z,2.83
2022-08-30T17:46:06.889Z,2.50
2022-08-30T17:48:34.209Z,2.60
2022-08-30T17:51:02.014Z,2.25
2022-08-30T17:53:28.947Z,2.92
2022-08-30T17:55:56.256Z,2.80
2022-08-30T17:58:25.579Z,2.53
2022-08-30T18:00:54.175Z,2.50
2022-08-30T18:03:20.681Z,2.70
2022-08-30T18:05:47.210Z,2.22
2022-08-30T18:08:13.872Z,2.60
2022-08-30T18:10:40.582Z,2.38
2022-08-30T18:13:06.960Z,2.40
2022-08-30T18:19:32.059Z,2.83
2022-08-30T18:21:59.172Z,2.60
2022-08-30T18:24:26.191Z,2.70
2022-08-30T18:26:54.871Z,2.58
2022-08-30T18:29:29.237Z,3.55
2022-08-30T18:32:02.265Z,2.80
2022-08-30T18:34:29.978Z,2.60
2022-08-30T18:36:56.884Z,2.70
2022-08-30T18:39:23.761Z,2.92
2022-08-30T18:41:51.008Z,2.95
2022-08-30T18:44:29.348Z,2.78
2022-08-30T18:46:57.456Z,2.53
2022-08-30T18:49:26.132Z,2.78
2022-08-30T18:51:53.053Z,2.55
2022-08-30T18:54:19.859Z,2.55
2022-08-30T18:56:46.520Z,2.63
2022-08-30T18:59:13.105Z,2.38
2022-08-30T19:01:40.501Z,2.80
2022-08-30T19:04:07.777Z,2.67
2022-08-30T19:06:34.712Z,2.95
2022-08-30T19:09:09.006Z,2.50
2022-08-30T19:11:38.338Z,2.60
2022-08-30T19:14:05.389Z,2.50
2022-08-30T19:16:34.385Z,2.65
2022-08-30T19:19:01.020Z,3.17
2022-08-30T19:21:27.522Z,2.60
2022-08-30T19:23:55.161Z,2.60
2022-08-30T19:26:21.818Z,2.63
2022-08-30T19:28:48.335Z,2.60
2022-08-30T19:31:14.815Z,2.75
2022-08-30T19:33:41.340Z,3.00
2022-08-30T19:36:08.202Z,2.70
2022-08-30T19:38:36.547Z,2.90
2022-08-30T19:41:03.360Z,2.38
2022-08-30T19:43:30.783Z,2.60
2022-08-30T19:45:59.495Z,2.75
2022-08-30T19:48:32.769Z,2.38
2022-08-30T19:51:06.730Z,2.30
2022-08-30T19:53:34.004Z,2.75
2022-08-30T19:56:00.402Z,2.67
2022-08-30T19:58:26.889Z,2.75
2022-08-30T20:00:57.976Z,2.70
2022-08-30T20:03:28.152Z,2.58
2022-08-30T20:05:54.577Z,2.40
2022-08-30T20:08:21.652Z,2.70
2022-08-30T20:10:48.260Z,2.50
2022-08-30T20:13:14.802Z,2.33
2022-08-30T20:15:41.288Z,2.40
2022-08-30T20:18:13.310Z,2.60
2022-08-30T20:20:41.829Z,2.10
2022-08-30T20:23:16.128Z,3.05
2022-08-30T20:25:48.989Z,2.33
2022-08-30T20:28:15.383Z,2.90
2022-08-30T20:30:43.671Z,2.78
2022-08-30T20:33:10.128Z,2.38
2022-08-30T20:35:36.753Z,2.40
2022-08-30T20:38:06.428Z,2.50
2022-08-30T20:40:37.315Z,2.70
2022-08-30T20:43:04.917Z,2.67
2022-08-30T20:45:33.590Z,2.15
2022-08-30T20:48:00.010Z,2.53
2022-08-30T20:50:26.973Z,2.58
2022-08-30T20:52:53.341Z,2.60
2022-08-30T20:55:19.997Z,2.53
2022-08-30T20:57:46.504Z,2.45
2022-08-30T21:00:13.935Z,2.45
2022-08-30T21:02:46.957Z,2.45
2022-08-30T21:05:16.362Z,2.38
2022-08-30T21:07:44.668Z,3.15
2022-08-30T21:10:12.647Z,2.30
2022-08-30T21:12:39.440Z,2.70
2022-08-30T21:15:34.006Z,2.40
2022-08-30T21:17:53.630Z,2.60
2022-08-30T21:20:20.184Z,2.30
2022-08-30T21:22:47.167Z,2.38
2022-08-30T21:25:13.537Z,2.30
2022-08-30T21:27:40.099Z,2.13
2022-08-30T21:30:06.946Z,2.65
2022-08-30T21:32:33.392Z,2.38
2022-08-30T21:35:18.318Z,2.25
2022-08-30T21:37:44.726Z,2.50
2022-08-30T21:40:14.828Z,2.55
2022-08-30T21:42:41.862Z,2.35
2022-08-30T21:45:08.858Z,2.47
2022-08-30T21:47:35.449Z,2.30
2022-08-30T21:50:02.044Z,2.40
2022-08-30T21:52:28.456Z,2.60
2022-08-30T21:54:54.848Z,2.40
2022-08-30T21:57:21.264Z,2.88
2022-08-30T21:59:47.806Z,2.85
2022-08-30T22:02:14.224Z,2.67
2022-08-30T22:04:41.390Z,2.70
2022-08-30T22:07:08.434Z,2.70
2022-08-30T22:09:36.351Z,2.70
2022-08-30T22:12:06.899Z,2.60
2022-08-30T22:14:35.098Z,2.67
2022-08-30T22:17:01.625Z,3.00
2022-08-30T22:19:28.166Z,2.88
2022-08-30T22:22:00.990Z,3.13
2022-08-30T22:24:29.261Z,3.08
2022-08-30T22:26:59.007Z,3.17
2022-08-30T22:29:25.480Z,2.88
2022-08-30T22:31:51.928Z,2.83
2022-08-30T22:34:18.489Z,2.97
2022-08-30T22:36:45.711Z,2.58
2022-08-30T22:39:13.360Z,2.58
2022-08-30T22:41:41.293Z,2.80
2022-08-30T22:44:07.736Z,2.78
2022-08-30T22:46:35.524Z,2.72
2022-08-30T22:49:04.199Z,2.83
2022-08-30T22:51:30.705Z,2.60
2022-08-30T22:53:57.763Z,3.08
2022-08-30T22:56:26.011Z,3.00
2022-08-30T22:58:52.955Z,2.63
2022-08-30T23:01:25.853Z,2.20
2022-08-30T23:03:53.311Z,3.63
2022-08-30T23:06:20.062Z,2.97
2022-08-30T23:08:46.929Z,3.13
2022-08-30T23:11:13.996Z,2.85
2022-08-30T23:13:42.090Z,2.95
2022-08-30T23:16:09.258Z,2.50
2022-08-30T23:18:37.957Z,3.03
2022-08-30T23:21:10.847Z,2.67
2022-08-30T23:23:56.466Z,2.90
2022-08-30T23:26:41.959Z,2.55
2022-08-30T23:29:27.151Z,2.70
2022-08-30T23:32:12.102Z,3.05
2022-08-30T23:34:57.353Z,2.58
2022-08-30T23:37:42.336Z,2.70
2022-08-30T23:40:28.479Z,2.70
2022-08-30T23:43:13.491Z,2.77
2022-08-30T23:45:58.690Z,2.88
2022-08-30T23:48:50.801Z,2.70
2022-08-30T23:51:37.337Z,2.90
2022-08-30T23:54:23.707Z,2.60
2022-08-30T23:57:09.162Z,2.88
2022-08-30T23:59:54.430Z,2.88
